createdAt,value
2017-03-01T00:00:37.265Z,989.01
2017-03-01T00:01:47.624Z,988.98
2017-03-01T00:02:57.999Z,988.98
2017-03-01T00:04:07.959Z,988.97
2017-03-01T00:05:18.731Z,988.95
2017-03-01T00:06:29.764Z,988.95
2017-03-01T00:07:40.516Z,988.98
2017-03-01T00:08:51.278Z,989.03
2017-03-01T00:10:02.042Z,989.12
2017-03-01T00:11:12.397Z,989.23
2017-03-01T00:12:23.003Z,989.26
2017-03-01T00:13:33.335Z,989.29
2017-03-01T00:14:43.293Z,989.31
2017-03-01T00:15:53.644Z,989.4
2017-03-01T00:17:04.022Z,989.41
2017-03-01T00:18:15.061Z,989.53
2017-03-01T00:19:25.796Z,989.47
2017-03-01T00:20:36.161Z,989.47
2017-03-01T00:21:46.912Z,989.41
2017-03-01T00:22:56.861Z,989.43
2017-03-01T00:24:07.131Z,989.38
2017-03-01T00:25:17.517Z,989.42
2017-03-01T00:26:28.247Z,989.48
2017-03-01T00:27:38.984Z,989.49
2017-03-01T00:28:49.322Z,989.53
2017-03-01T00:29:59.941Z,989.54
2017-03-01T00:31:10.287Z,989.48
2017-03-01T00:32:21.012Z,989.52
2017-03-01T00:33:31.382Z,989.45
2017-03-01T00:34:41.880Z,989.45
2017-03-01T00:35:52.115Z,989.55
2017-03-01T00:37:02.459Z,989.54
2017-03-01T00:38:12.826Z,989.51
2017-03-01T00:39:23.590Z,989.5
2017-03-01T00:40:33.921Z,989.65
2017-03-01T00:41:44.986Z,989.67
2017-03-01T00:42:54.955Z,989.76
2017-03-01T00:44:06.269Z,989.85
2017-03-01T00:45:17.021Z,989.87
2017-03-01T00:46:28.059Z,989.87
2017-03-01T00:47:37.489Z,989.88
2017-03-01T00:48:47.828Z,989.97
2017-03-01T00:49:58.204Z,990.07
2017-03-01T00:51:08.772Z,990.15
2017-03-01T00:52:19.141Z,990.13
2017-03-01T00:53:29.744Z,990.09
2017-03-01T00:54:39.329Z,990.1
2017-03-01T00:55:50.052Z,990.17
2017-03-01T00:57:00.402Z,990.19
2017-03-01T00:58:10.353Z,990.24
2017-03-01T00:59:21.028Z,990.27
2017-03-01T01:00:31.764Z,990.31
2017-03-01T01:01:42.113Z,990.39
2017-03-01T01:02:52.888Z,990.36
2017-03-01T01:04:03.633Z,990.39
2017-03-01T01:05:14.629Z,990.35
2017-03-01T01:06:24.576Z,990.36
2017-03-01T01:07:35.336Z,990.41
2017-03-01T01:08:45.693Z,990.44
2017-03-01T01:09:56.055Z,990.44
2017-03-01T01:11:06.695Z,990.5
2017-03-01T01:12:17.463Z,990.51
2017-03-01T01:13:27.850Z,990.54
2017-03-01T01:14:38.150Z,990.55
2017-03-01T01:15:48.493Z,990.56
2017-03-01T01:16:59.553Z,990.56
2017-03-01T01:18:09.895Z,990.6
2017-03-01T01:19:20.636Z,990.61
2017-03-01T01:20:31.393Z,990.67
2017-03-01T01:21:41.726Z,990.68
2017-03-01T01:22:51.544Z,990.69
2017-03-01T01:24:01.537Z,990.8
2017-03-01T01:25:12.288Z,990.79
2017-03-01T01:26:22.652Z,990.82
2017-03-01T01:27:33.012Z,990.77
2017-03-01T01:28:43.252Z,990.82
2017-03-01T01:29:53.625Z,990.8
2017-03-01T01:31:04.378Z,990.87
2017-03-01T01:32:14.751Z,990.86
2017-03-01T01:33:25.506Z,990.91
2017-03-01T01:34:35.703Z,990.9
2017-03-01T01:35:46.043Z,990.91
2017-03-01T01:36:56.398Z,990.93
2017-03-01T01:38:06.754Z,990.99
2017-03-01T01:39:17.089Z,990.98
2017-03-01T01:40:26.971Z,991.07
2017-03-01T01:41:36.551Z,991.04
2017-03-01T01:42:47.304Z,991.05
2017-03-01T01:43:57.677Z,991.12
2017-03-01T01:45:08.019Z,991.1
2017-03-01T01:46:18.624Z,991.07
2017-03-01T01:47:29.380Z,991.22
2017-03-01T01:48:40.147Z,991.23
2017-03-01T01:49:50.484Z,991.27
2017-03-01T01:51:00.039Z,991.28
2017-03-01T01:52:10.632Z,991.35
2017-03-01T01:53:21.365Z,991.31
2017-03-01T01:54:31.718Z,991.38
2017-03-01T01:55:41.661Z,991.4
2017-03-01T01:56:51.994Z,991.47
2017-03-01T01:58:02.884Z,991.39
2017-03-01T01:59:13.635Z,991.47
2017-03-01T02:00:24.368Z,991.49
2017-03-01T02:01:35.111Z,991.45
2017-03-01T02:02:45.488Z,991.47
2017-03-01T02:03:56.526Z,991.45
2017-03-01T02:05:06.885Z,991.5
2017-03-01T02:06:17.236Z,991.5
2017-03-01T02:07:27.603Z,991.53
2017-03-01T02:08:38.335Z,991.56
2017-03-01T02:09:49.386Z,991.6
2017-03-01T02:10:58.948Z,991.64
2017-03-01T02:12:09.322Z,991.69
2017-03-01T02:13:18.887Z,991.61
2017-03-01T02:14:29.229Z,991.62
2017-03-01T02:15:39.831Z,991.61
2017-03-01T02:16:49.789Z,991.7
2017-03-01T02:18:00.116Z,991.71
2017-03-01T02:19:10.474Z,991.65
2017-03-01T02:20:20.840Z,991.68
2017-03-01T02:21:31.876Z,991.67
2017-03-01T02:22:42.234Z,991.63
2017-03-01T02:23:52.981Z,991.71
2017-03-01T02:25:03.744Z,991.65
2017-03-01T02:26:14.107Z,991.67
2017-03-01T02:27:25.165Z,991.66
2017-03-01T02:28:35.936Z,991.73
2017-03-01T02:29:46.288Z,991.71
2017-03-01T02:30:57.065Z,991.79
2017-03-01T02:32:07.412Z,991.79
2017-03-01T02:33:17.648Z,991.82
2017-03-01T02:34:27.988Z,991.84
2017-03-01T02:35:38.726Z,991.85
2017-03-01T02:36:49.488Z,991.89
2017-03-01T02:37:59.443Z,991.86
2017-03-01T02:39:10.048Z,991.93
2017-03-01T02:40:20.800Z,991.94
2017-03-01T02:41:30.768Z,991.99
2017-03-01T02:42:41.132Z,991.98
2017-03-01T02:43:51.478Z,992.01
2017-03-01T02:45:02.141Z,992.03
2017-03-01T02:46:12.506Z,992.04
2017-03-01T02:47:23.255Z,991.97
2017-03-01T02:48:34.025Z,991.95
2017-03-01T02:49:43.984Z,992.02
2017-03-01T02:50:54.206Z,992.07
2017-03-01T02:52:04.541Z,992.08
2017-03-01T02:53:15.291Z,992.09
2017-03-01T02:54:25.638Z,992.12
2017-03-01T02:55:35.590Z,992.15
2017-03-01T02:56:46.240Z,992.17
2017-03-01T02:57:56.992Z,992.2
2017-03-01T02:59:06.954Z,992.23
2017-03-01T03:00:17.315Z,992.3
2017-03-01T03:01:28.052Z,992.27
2017-03-01T03:02:38.669Z,992.3
2017-03-01T03:03:49.024Z,992.21
2017-03-01T03:04:59.760Z,992.34
2017-03-01T03:06:10.132Z,992.34
2017-03-01T03:07:20.071Z,992.37
2017-03-01T03:08:30.285Z,992.34
2017-03-01T03:09:41.031Z,992.37
2017-03-01T03:10:51.386Z,992.4
2017-03-01T03:12:01.748Z,992.39
2017-03-01T03:13:11.699Z,992.43
2017-03-01T03:14:22.720Z,992.45
2017-03-01T03:15:33.084Z,992.39
2017-03-01T03:16:43.085Z,992.45
2017-03-01T03:17:53.427Z,992.45
2017-03-01T03:19:03.025Z,992.49
2017-03-01T03:20:13.677Z,992.46
2017-03-01T03:21:23.645Z,992.48
2017-03-01T03:22:34.400Z,992.5
2017-03-01T03:23:45.143Z,992.48
2017-03-01T03:24:55.910Z,992.5
2017-03-01T03:26:06.946Z,992.48
2017-03-01T03:27:17.702Z,992.47
2017-03-01T03:28:28.064Z,992.49
2017-03-01T03:29:38.796Z,992.48
2017-03-01T03:30:49.158Z,992.52
2017-03-01T03:32:00.205Z,992.56
2017-03-01T03:33:10.963Z,992.51
2017-03-01T03:34:21.328Z,992.55
2017-03-01T03:35:31.679Z,992.58
2017-03-01T03:36:41.651Z,992.65
2017-03-01T03:37:51.904Z,992.66
2017-03-01T03:39:02.278Z,992.71
2017-03-01T03:40:12.640Z,992.65
2017-03-01T03:41:23.395Z,992.65
2017-03-01T03:42:33.739Z,992.66
2017-03-01T03:43:44.409Z,992.7
2017-03-01T03:44:55.164Z,992.75
2017-03-01T03:46:05.927Z,992.73
2017-03-01T03:47:16.672Z,992.76
2017-03-01T03:48:27.011Z,992.75
2017-03-01T03:49:37.632Z,992.76
2017-03-01T03:50:47.990Z,992.8
2017-03-01T03:51:58.348Z,992.78
2017-03-01T03:53:08.339Z,992.76
2017-03-01T03:54:18.691Z,992.79
2017-03-01T03:55:28.957Z,992.76
2017-03-01T03:56:39.690Z,992.8
2017-03-01T03:57:50.026Z,992.73
2017-03-01T03:58:59.988Z,992.81
2017-03-01T04:00:10.734Z,992.85
2017-03-01T04:01:21.334Z,992.88
2017-03-01T04:02:32.283Z,992.91
2017-03-01T04:03:43.040Z,992.9
2017-03-01T04:04:52.998Z,992.93
2017-03-01T04:06:03.777Z,992.99
2017-03-01T04:07:14.461Z,992.96
2017-03-01T04:08:24.415Z,992.99
2017-03-01T04:09:34.772Z,993.01
2017-03-01T04:10:45.537Z,993.03
2017-03-01T04:11:56.298Z,993.04
2017-03-01T04:13:07.360Z,993.04
2017-03-01T04:14:18.119Z,993.05
2017-03-01T04:15:28.486Z,993.04
2017-03-01T04:16:39.256Z,993.01
2017-03-01T04:17:49.600Z,992.99
2017-03-01T04:19:00.602Z,993.03
2017-03-01T04:20:11.786Z,993.05
2017-03-01T04:21:22.129Z,993.02
2017-03-01T04:22:32.896Z,992.97
2017-03-01T04:23:43.258Z,993.02
2017-03-01T04:24:53.094Z,993.01
2017-03-01T04:26:03.700Z,993
2017-03-01T04:27:14.080Z,992.98
2017-03-01T04:28:24.836Z,992.95
2017-03-01T04:29:35.590Z,992.95
2017-03-01T04:30:45.843Z,992.92
2017-03-01T04:31:55.808Z,992.93
2017-03-01T04:33:06.170Z,992.93
2017-03-01T04:34:16.530Z,993
2017-03-01T04:35:26.906Z,992.97
2017-03-01T04:36:36.789Z,992.99
2017-03-01T04:37:47.539Z,992.98
2017-03-01T04:38:57.894Z,993
2017-03-01T04:40:08.640Z,992.94
2017-03-01T04:41:19.395Z,992.97
2017-03-01T04:42:29.977Z,992.92
2017-03-01T04:43:40.345Z,992.89
2017-03-01T04:44:50.710Z,992.88
2017-03-01T04:46:01.484Z,992.86
2017-03-01T04:47:11.838Z,992.87
2017-03-01T04:48:22.531Z,992.86
2017-03-01T04:49:32.876Z,992.88
2017-03-01T04:50:43.222Z,992.91
2017-03-01T04:51:53.981Z,992.92
2017-03-01T04:53:04.738Z,992.92
2017-03-01T04:54:15.020Z,992.91
2017-03-01T04:55:24.955Z,992.97
2017-03-01T04:56:35.311Z,992.97
2017-03-01T04:57:44.872Z,992.95
2017-03-01T04:58:55.625Z,993.01
2017-03-01T05:00:06.304Z,993.01
2017-03-01T05:01:16.648Z,993.05
2017-03-01T05:02:27.407Z,993.1
2017-03-01T05:03:37.759Z,993.06
2017-03-01T05:04:48.530Z,993.12
2017-03-01T05:05:59.177Z,993.15
2017-03-01T05:07:09.909Z,993.18
2017-03-01T05:08:20.274Z,993.17
2017-03-01T05:09:31.013Z,993.15
2017-03-01T05:10:41.754Z,993.16
2017-03-01T05:11:52.738Z,993.17
2017-03-01T05:13:03.477Z,993.17
2017-03-01T05:14:14.232Z,993.17
2017-03-01T05:15:24.994Z,993.2
2017-03-01T05:16:35.361Z,993.17
2017-03-01T05:17:46.369Z,993.22
2017-03-01T05:18:56.335Z,993.26
2017-03-01T05:20:07.096Z,993.24
2017-03-01T05:21:17.867Z,993.23
2017-03-01T05:22:27.825Z,993.24
2017-03-01T05:23:38.421Z,993.21
2017-03-01T05:24:48.763Z,993.28
2017-03-01T05:25:59.122Z,993.24
2017-03-01T05:27:09.487Z,993.26
2017-03-01T05:28:20.233Z,993.23
2017-03-01T05:29:30.905Z,993.24
2017-03-01T05:30:40.864Z,993.23
2017-03-01T05:31:51.214Z,993.24
2017-03-01T05:33:01.548Z,993.24
2017-03-01T05:34:12.302Z,993.24
2017-03-01T05:35:23.409Z,993.26
2017-03-01T05:36:33.756Z,993.24
2017-03-01T05:37:43.726Z,993.29
2017-03-01T05:38:54.076Z,993.21
2017-03-01T05:40:04.505Z,993.28
2017-03-01T05:41:15.189Z,993.29
2017-03-01T05:42:25.547Z,993.28
2017-03-01T05:43:36.318Z,993.29
2017-03-01T05:44:47.564Z,993.27
2017-03-01T05:45:57.931Z,993.29
2017-03-01T05:47:08.184Z,993.31
2017-03-01T05:48:18.546Z,993.32
2017-03-01T05:49:29.297Z,993.36
2017-03-01T05:50:40.067Z,993.4
2017-03-01T05:51:50.431Z,993.35
2017-03-01T05:53:01.477Z,993.35
2017-03-01T05:54:11.850Z,993.32
2017-03-01T05:55:22.581Z,993.31
2017-03-01T05:56:33.346Z,993.33
2017-03-01T05:57:43.711Z,993.34
2017-03-01T05:58:54.715Z,993.4
2017-03-01T06:00:05.091Z,993.39
2017-03-01T06:01:15.465Z,993.45
2017-03-01T06:02:25.813Z,993.4
2017-03-01T06:03:35.762Z,993.41
2017-03-01T06:04:46.792Z,993.43
2017-03-01T06:05:57.525Z,993.44
2017-03-01T06:07:07.896Z,993.41
2017-03-01T06:08:17.858Z,993.41
2017-03-01T06:09:27.816Z,993.44
2017-03-01T06:10:38.850Z,993.48
2017-03-01T06:11:49.786Z,993.43
2017-03-01T06:12:59.747Z,993.48
2017-03-01T06:14:10.495Z,993.47
2017-03-01T06:15:20.521Z,993.47
2017-03-01T06:16:31.173Z,993.49
2017-03-01T06:17:41.939Z,993.52
2017-03-01T06:18:52.720Z,993.46
2017-03-01T06:20:02.706Z,993.52
2017-03-01T06:21:13.454Z,993.53
2017-03-01T06:22:24.053Z,993.55
2017-03-01T06:23:34.406Z,993.51
2017-03-01T06:24:44.760Z,993.56
2017-03-01T06:25:55.110Z,993.57
2017-03-01T06:27:05.437Z,993.59
2017-03-01T06:28:16.062Z,993.62
2017-03-01T06:29:26.821Z,993.61
2017-03-01T06:30:37.193Z,993.65
2017-03-01T06:31:47.164Z,993.65
2017-03-01T06:32:57.936Z,993.65
2017-03-01T06:34:08.159Z,993.7
2017-03-01T06:35:18.932Z,993.69
2017-03-01T06:36:29.291Z,993.69
2017-03-01T06:37:39.660Z,993.75
2017-03-01T06:38:50.412Z,993.77
2017-03-01T06:40:01.020Z,993.75
2017-03-01T06:41:10.592Z,993.74
2017-03-01T06:42:20.567Z,993.77
2017-03-01T06:43:31.347Z,993.76
2017-03-01T06:44:41.314Z,993.77
2017-03-01T06:45:51.977Z,993.76
2017-03-01T06:47:02.729Z,993.82
2017-03-01T06:48:12.692Z,993.86
2017-03-01T06:49:23.052Z,993.81
2017-03-01T06:50:33.794Z,993.9
2017-03-01T06:51:44.012Z,993.92
2017-03-01T06:52:54.362Z,993.91
2017-03-01T06:54:04.727Z,993.96
2017-03-01T06:55:15.535Z,993.95
2017-03-01T06:56:26.302Z,993.94
2017-03-01T06:57:37.400Z,993.96
2017-03-01T06:58:47.758Z,993.97
2017-03-01T06:59:57.724Z,994.03
2017-03-01T07:01:07.686Z,993.98
2017-03-01T07:02:18.079Z,994.11
2017-03-01T07:03:28.374Z,994.02
2017-03-01T07:04:38.732Z,994
2017-03-01T07:05:49.083Z,993.98
2017-03-01T07:06:59.056Z,993.99
2017-03-01T07:08:09.017Z,993.99
2017-03-01T07:09:19.641Z,993.98
2017-03-01T07:10:30.005Z,993.98
2017-03-01T07:11:40.388Z,994.01
2017-03-01T07:12:50.739Z,993.96
2017-03-01T07:14:01.084Z,993.97
2017-03-01T07:15:11.709Z,994
2017-03-01T07:16:21.671Z,993.98
2017-03-01T07:17:32.425Z,993.94
2017-03-01T07:18:42.806Z,994.03
2017-03-01T07:19:53.193Z,994.05
2017-03-01T07:21:04.247Z,994.07
2017-03-01T07:22:14.586Z,994.12
2017-03-01T07:23:25.369Z,994.15
2017-03-01T07:24:35.737Z,994.16
2017-03-01T07:25:45.314Z,994.2
2017-03-01T07:26:56.364Z,994.22
2017-03-01T07:28:06.748Z,994.22
2017-03-01T07:29:17.126Z,994.2
2017-03-01T07:30:27.882Z,994.22
2017-03-01T07:31:38.252Z,994.25
2017-03-01T07:32:48.562Z,994.31
2017-03-01T07:33:58.938Z,994.31
2017-03-01T07:35:09.709Z,994.32
2017-03-01T07:36:20.076Z,994.34
2017-03-01T07:37:30.825Z,994.34
2017-03-01T07:38:41.481Z,994.32
2017-03-01T07:39:52.243Z,994.38
2017-03-01T07:41:03.004Z,994.38
2017-03-01T07:42:13.753Z,994.47
2017-03-01T07:43:24.115Z,994.46
2017-03-01T07:44:34.723Z,994.47
2017-03-01T07:45:44.674Z,994.48
2017-03-01T07:46:55.424Z,994.44
2017-03-01T07:48:05.815Z,994.42
2017-03-01T07:49:15.807Z,994.46
2017-03-01T07:52:28.750Z,994.5
2017-03-01T07:53:39.106Z,994.49
2017-03-01T07:54:49.072Z,994.53
2017-03-01T07:55:59.450Z,994.47
2017-03-01T07:57:10.477Z,994.51
2017-03-01T07:58:20.874Z,994.53
2017-03-01T07:59:31.235Z,994.54
2017-03-01T08:00:41.605Z,994.55
2017-03-01T08:01:52.005Z,994.51
2017-03-01T08:03:01.864Z,994.5
2017-03-01T08:04:11.828Z,994.51
2017-03-01T08:05:22.201Z,994.53
2017-03-01T08:06:31.773Z,994.49
2017-03-01T08:07:42.557Z,994.52
2017-03-01T08:08:53.572Z,994.59
2017-03-01T08:10:03.548Z,994.64
2017-03-01T08:11:13.914Z,994.68
2017-03-01T08:12:24.264Z,994.64
2017-03-01T08:13:35.015Z,994.62
2017-03-01T08:14:46.058Z,994.65
2017-03-01T08:15:56.811Z,994.72
2017-03-01T08:17:07.610Z,994.7
2017-03-01T08:18:18.377Z,994.72
2017-03-01T08:19:28.733Z,994.68
2017-03-01T08:20:39.382Z,994.74
2017-03-01T08:21:49.781Z,994.67
2017-03-01T08:23:00.150Z,994.75
2017-03-01T08:24:10.533Z,994.7
2017-03-01T08:25:21.322Z,994.66
2017-03-01T08:26:32.381Z,994.66
2017-03-01T08:27:42.342Z,994.7
2017-03-01T08:28:52.944Z,994.7
2017-03-01T08:30:03.552Z,994.73
2017-03-01T08:31:13.922Z,994.8
2017-03-01T08:32:24.561Z,994.83
2017-03-01T08:33:34.978Z,994.88
2017-03-01T08:34:45.748Z,994.92
2017-03-01T08:35:56.115Z,995.02
2017-03-01T08:37:06.903Z,995.08
2017-03-01T08:38:17.946Z,995.18
2017-03-01T08:39:28.593Z,995.17
2017-03-01T08:40:39.365Z,995.13
2017-03-01T08:41:50.128Z,995.08
2017-03-01T08:43:00.132Z,995.07
2017-03-01T08:44:10.837Z,995.18
2017-03-01T08:45:21.630Z,995.2
2017-03-01T08:46:32.404Z,995.15
2017-03-01T08:47:42.383Z,995.18
2017-03-01T08:48:52.747Z,995.18
2017-03-01T08:50:02.964Z,995.19
2017-03-01T08:51:13.738Z,995.2
2017-03-01T08:52:24.111Z,995.24
2017-03-01T08:53:34.868Z,995.24
2017-03-01T08:54:45.242Z,995.2
2017-03-01T08:55:55.920Z,995.21
2017-03-01T08:57:06.699Z,995.2
2017-03-01T08:58:17.469Z,995.27
2017-03-01T08:59:27.850Z,995.24
2017-03-01T09:00:38.231Z,995.23
2017-03-01T09:01:48.849Z,995.23
2017-03-01T09:02:59.250Z,995.19
2017-03-01T09:04:09.616Z,995.21
2017-03-01T09:05:19.616Z,995.2
2017-03-01T09:06:30.019Z,995.18
2017-03-01T09:07:41.084Z,995.13
2017-03-01T09:08:51.056Z,995.16
2017-03-01T09:10:01.416Z,995.16
2017-03-01T09:11:12.219Z,995.2
2017-03-01T09:12:22.618Z,995.16
2017-03-01T09:13:33.668Z,995.19
2017-03-01T09:14:44.420Z,995.15
2017-03-01T09:15:55.170Z,995.18
2017-03-01T09:17:05.966Z,995.15
2017-03-01T09:18:16.736Z,995.16
2017-03-01T09:19:27.424Z,995.15
2017-03-01T09:20:38.174Z,995.16
2017-03-01T09:21:48.554Z,995.15
2017-03-01T09:22:58.913Z,995.22
2017-03-01T09:24:09.274Z,995.24
2017-03-01T09:25:19.956Z,995.25
2017-03-01T09:26:30.741Z,995.32
2017-03-01T09:27:41.151Z,995.35
2017-03-01T09:28:51.911Z,995.32
2017-03-01T09:30:02.309Z,995.26
2017-03-01T09:31:12.970Z,995.29
2017-03-01T09:32:23.738Z,995.28
2017-03-01T09:33:34.132Z,995.27
2017-03-01T09:34:44.126Z,995.25
2017-03-01T09:35:54.547Z,995.27
2017-03-01T09:37:05.155Z,995.28
2017-03-01T09:38:15.528Z,995.25
2017-03-01T09:39:25.917Z,995.23
2017-03-01T09:40:36.328Z,995.22
2017-03-01T09:41:46.703Z,995.29
2017-03-01T09:42:57.070Z,995.34
2017-03-01T09:44:07.873Z,995.35
2017-03-01T09:45:18.704Z,995.45
2017-03-01T09:46:29.089Z,995.42
2017-03-01T09:47:38.689Z,995.51
2017-03-01T09:48:49.374Z,995.4
2017-03-01T09:49:59.717Z,995.42
2017-03-01T09:51:10.519Z,995.4
2017-03-01T09:52:21.306Z,995.41
2017-03-01T09:53:31.927Z,995.38
2017-03-01T09:54:42.306Z,995.42
2017-03-01T09:55:52.711Z,995.41
2017-03-01T09:57:03.514Z,995.36
2017-03-01T09:58:14.272Z,995.34
2017-03-01T09:59:25.366Z,995.37
2017-03-01T10:00:36.115Z,995.41
2017-03-01T10:01:46.510Z,995.4
2017-03-01T10:02:56.876Z,995.47
2017-03-01T10:04:06.874Z,995.46
2017-03-01T10:05:17.117Z,995.47
2017-03-01T10:06:27.475Z,995.46
2017-03-01T10:07:38.244Z,995.44
2017-03-01T10:08:48.729Z,995.46
2017-03-01T10:09:59.501Z,995.46
2017-03-01T10:11:10.196Z,995.41
2017-03-01T10:12:20.580Z,995.44
2017-03-01T10:13:30.958Z,995.39
2017-03-01T10:14:41.372Z,995.35
2017-03-01T10:15:51.419Z,995.35
2017-03-01T10:17:02.810Z,995.39
2017-03-01T10:18:13.202Z,995.42
2017-03-01T10:19:24.225Z,995.38
2017-03-01T10:20:34.996Z,995.38
2017-03-01T10:21:44.990Z,995.39
2017-03-01T10:22:56.044Z,995.35
2017-03-01T10:24:06.445Z,995.38
2017-03-01T10:25:16.832Z,995.43
2017-03-01T10:26:27.207Z,995.34
2017-03-01T10:27:37.574Z,995.34
2017-03-01T10:28:48.599Z,995.38
2017-03-01T10:29:58.589Z,995.36
2017-03-01T10:31:08.979Z,995.29
2017-03-01T10:32:19.745Z,995.32
2017-03-01T10:33:30.135Z,995.31
2017-03-01T10:34:40.800Z,995.28
2017-03-01T10:35:51.134Z,995.26
2017-03-01T10:37:01.908Z,995.26
2017-03-01T10:38:12.294Z,995.29
2017-03-01T10:39:22.676Z,995.24
2017-03-01T10:40:32.919Z,995.26
2017-03-01T10:41:43.299Z,995.32
2017-03-01T10:42:53.666Z,995.31
2017-03-01T10:44:04.034Z,995.28
2017-03-01T10:45:14.405Z,995.28
2017-03-01T10:46:25.402Z,995.29
2017-03-01T10:47:35.780Z,995.3
2017-03-01T10:48:46.545Z,995.27
2017-03-01T10:49:57.328Z,995.28
2017-03-01T10:51:08.096Z,995.31
2017-03-01T10:52:18.314Z,995.28
2017-03-01T10:53:28.272Z,995.35
2017-03-01T10:54:39.035Z,995.3
2017-03-01T10:55:50.064Z,995.3
2017-03-01T10:57:00.035Z,995.32
2017-03-01T10:58:10.662Z,995.32
2017-03-01T10:59:21.406Z,995.35
2017-03-01T11:00:31.386Z,995.34
2017-03-01T11:01:41.741Z,995.36
2017-03-01T11:02:52.099Z,995.35
2017-03-01T11:04:02.855Z,995.3
2017-03-01T11:05:12.816Z,995.3
2017-03-01T11:06:23.194Z,995.3
2017-03-01T11:07:33.181Z,995.32
2017-03-01T11:08:44.217Z,995.25
2017-03-01T11:09:54.199Z,995.26
2017-03-01T11:11:04.578Z,995.22
2017-03-01T11:12:15.359Z,995.23
2017-03-01T11:13:26.135Z,995.26
2017-03-01T11:14:36.758Z,995.22
2017-03-01T11:15:47.167Z,995.22
2017-03-01T11:16:57.555Z,995.18
2017-03-01T11:18:07.951Z,995.22
2017-03-01T11:19:18.693Z,995.19
2017-03-01T11:20:28.527Z,995.22
2017-03-01T11:21:38.892Z,995.21
2017-03-01T11:22:49.266Z,995.24
2017-03-01T11:24:00.028Z,995.21
2017-03-01T11:25:10.399Z,995.21
2017-03-01T11:26:21.025Z,995.22
2017-03-01T11:27:31.407Z,995.21
2017-03-01T11:28:42.165Z,995.23
2017-03-01T11:29:52.546Z,995.16
2017-03-01T11:31:03.336Z,995.17
2017-03-01T11:32:14.353Z,995.14
2017-03-01T11:33:25.120Z,995.17
2017-03-01T11:34:35.512Z,995.18
2017-03-01T11:35:45.072Z,995.19
2017-03-01T11:36:55.819Z,995.19
2017-03-01T11:38:06.453Z,995.11
2017-03-01T11:39:16.451Z,995.11
2017-03-01T11:40:26.833Z,995.13
2017-03-01T11:41:37.617Z,995.12
2017-03-01T11:42:47.556Z,995.07
2017-03-01T11:43:58.635Z,995.11
2017-03-01T11:45:09.010Z,995.08
2017-03-01T11:46:19.387Z,995.19
2017-03-01T11:47:30.124Z,995.07
2017-03-01T11:48:40.482Z,995.13
2017-03-01T11:49:51.548Z,995.11
2017-03-01T11:51:01.525Z,995.1
2017-03-01T11:52:12.282Z,995.08
2017-03-01T11:53:22.660Z,995.14
2017-03-01T11:54:32.629Z,995.09
2017-03-01T11:55:43.675Z,995.13
2017-03-01T11:56:54.042Z,995.05
2017-03-01T11:58:04.309Z,995.11
2017-03-01T11:59:14.293Z,995.1
2017-03-01T12:00:24.267Z,995.12
2017-03-01T12:01:34.932Z,995.22
2017-03-01T12:02:45.716Z,995.16
2017-03-01T12:03:56.503Z,995.18
2017-03-01T12:05:07.263Z,995.15
2017-03-01T12:06:17.630Z,995.17
2017-03-01T12:07:28.244Z,995.18
2017-03-01T12:08:38.589Z,995.19
2017-03-01T12:09:48.956Z,995.17
2017-03-01T12:10:59.729Z,995.18
2017-03-01T12:12:10.151Z,995.15
2017-03-01T12:13:20.410Z,995.18
2017-03-01T12:14:30.382Z,995.19
2017-03-01T12:15:41.153Z,995.22
2017-03-01T12:16:51.889Z,995.21
2017-03-01T12:18:01.464Z,995.22
2017-03-01T12:19:12.151Z,995.18
2017-03-01T12:20:22.126Z,995.21
2017-03-01T12:21:32.903Z,995.16
2017-03-01T12:22:43.664Z,995.25
2017-03-01T12:23:54.071Z,995.25
2017-03-01T12:25:05.177Z,995.26
2017-03-01T12:26:15.607Z,995.23
2017-03-01T12:27:26.010Z,995.23
2017-03-01T12:28:36.767Z,995.23
2017-03-01T12:29:47.613Z,995.21
2017-03-01T12:30:58.648Z,995.19
2017-03-01T12:32:08.708Z,995.13
2017-03-01T12:33:18.659Z,995.2
2017-03-01T12:34:29.060Z,995.18
2017-03-01T12:35:39.810Z,995.15
2017-03-01T12:36:50.864Z,995.16
2017-03-01T12:38:01.277Z,995.11
2017-03-01T12:39:11.286Z,995.13
2017-03-01T12:40:22.032Z,995.11
2017-03-01T12:41:32.396Z,995.16
2017-03-01T12:42:43.447Z,995.15
2017-03-01T12:43:53.835Z,995.11
2017-03-01T12:45:04.606Z,995.04
2017-03-01T12:46:14.989Z,995.1
2017-03-01T12:47:25.360Z,995.15
2017-03-01T12:48:35.656Z,995.12
2017-03-01T12:49:46.414Z,995.17
2017-03-01T12:50:57.176Z,995.18
2017-03-01T12:52:07.965Z,995.17
2017-03-01T12:53:18.362Z,995.19
2017-03-01T12:54:28.698Z,995.15
2017-03-01T12:55:39.081Z,995.17
2017-03-01T12:56:49.461Z,995.17
2017-03-01T12:57:59.444Z,995.1
2017-03-01T12:59:10.218Z,995.15
2017-03-01T13:00:20.813Z,995.16
2017-03-01T13:01:31.184Z,995.14
2017-03-01T13:02:41.148Z,995.18
2017-03-01T13:03:51.888Z,995.2
2017-03-01T13:05:02.270Z,995.2
2017-03-01T13:06:12.974Z,995.18
2017-03-01T13:07:23.342Z,995.18
2017-03-01T13:08:33.332Z,995.25
2017-03-01T13:09:44.110Z,995.19
2017-03-01T13:10:54.497Z,995.19
2017-03-01T13:12:05.118Z,995.23
2017-03-01T13:13:15.488Z,995.24
2017-03-01T13:14:26.231Z,995.25
2017-03-01T13:15:37.008Z,995.23
2017-03-01T13:16:47.745Z,995.27
2017-03-01T13:17:58.820Z,995.28
2017-03-01T13:19:09.200Z,995.23
2017-03-01T13:20:19.947Z,995.21
2017-03-01T13:21:29.914Z,995.23
2017-03-01T13:22:40.685Z,995.25
2017-03-01T13:23:51.975Z,995.22
2017-03-01T13:25:02.774Z,995.19
2017-03-01T13:26:13.774Z,995.22
2017-03-01T13:27:24.144Z,995.23
2017-03-01T13:28:34.118Z,995.2
2017-03-01T13:29:44.727Z,995.2
2017-03-01T13:30:54.725Z,995.16
2017-03-01T13:32:04.698Z,995.21
2017-03-01T13:33:15.476Z,995.22
2017-03-01T13:34:26.224Z,995.15
2017-03-01T13:35:36.515Z,995.21
2017-03-01T13:36:46.880Z,995.23
2017-03-01T13:37:57.280Z,995.22
2017-03-01T13:39:08.055Z,995.26
2017-03-01T13:40:17.638Z,995.24
2017-03-01T13:41:28.326Z,995.27
2017-03-01T13:42:38.284Z,995.25
2017-03-01T13:43:49.073Z,995.24
2017-03-01T13:44:59.454Z,995.25
2017-03-01T13:46:09.811Z,995.27
2017-03-01T13:47:20.169Z,995.29
2017-03-01T13:48:30.579Z,995.35
2017-03-01T13:49:41.443Z,995.35
2017-03-01T13:50:51.392Z,995.35
2017-03-01T13:52:01.606Z,995.33
2017-03-01T13:53:11.997Z,995.31
2017-03-01T13:54:22.777Z,995.31
2017-03-01T13:55:33.577Z,995.32
2017-03-01T13:56:43.548Z,995.38
2017-03-01T13:57:54.178Z,995.38
2017-03-01T13:59:04.548Z,995.38
2017-03-01T14:00:14.571Z,995.37
2017-03-01T14:01:24.954Z,995.35
2017-03-01T14:02:34.916Z,995.36
2017-03-01T14:03:45.981Z,995.31
2017-03-01T14:04:56.365Z,995.32
2017-03-01T14:06:06.744Z,995.36
2017-03-01T14:07:16.720Z,995.32
2017-03-01T14:08:27.098Z,995.33
2017-03-01T14:09:37.388Z,995.35
2017-03-01T14:10:47.353Z,995.35
2017-03-01T14:11:57.716Z,995.31
2017-03-01T14:13:07.676Z,995.28
2017-03-01T14:14:17.671Z,995.28
2017-03-01T14:15:28.365Z,995.26
2017-03-01T14:16:38.380Z,995.23
2017-03-01T14:17:49.161Z,995.23
2017-03-01T14:18:59.566Z,995.23
2017-03-01T14:20:09.920Z,995.26
2017-03-01T14:21:20.577Z,995.26
2017-03-01T14:22:30.158Z,995.3
2017-03-01T14:23:40.539Z,995.32
2017-03-01T14:24:51.316Z,995.34
2017-03-01T14:26:01.684Z,995.35
2017-03-01T14:27:11.946Z,995.39
2017-03-01T14:28:21.930Z,995.4
2017-03-01T14:29:32.693Z,995.38
2017-03-01T14:30:42.652Z,995.49
2017-03-01T14:31:53.038Z,995.59
2017-03-01T14:33:03.736Z,995.54
2017-03-01T14:34:14.122Z,995.53
2017-03-01T14:35:24.114Z,995.51
2017-03-01T14:36:34.865Z,995.5
2017-03-01T14:37:45.617Z,995.54
2017-03-01T14:38:56.292Z,995.5
2017-03-01T14:40:06.273Z,995.53
2017-03-01T14:41:17.032Z,995.49
2017-03-01T14:42:27.835Z,995.47
2017-03-01T14:43:38.578Z,995.55
2017-03-01T14:44:49.193Z,995.54